Time;durP1;ratioP1;P1;durP2;ratioP2;P2;SDS_P1;SDS_P2;PMS_P1;PMS_P2;Temp;Humidity;BMP_temperature;BMP_pressure;BME280_temperature;BME280_humidity;BME280_pressure;Samples;Min_cycle;Max_cycle;Signal;HPM_P1;HPM_P2
2023/05/06 00:00:24;;;;;;;7.07;2.77;;;16.60;60.60;;;;;;5048712;28;20203;-66
2023/05/06 00:02:52;;;;;;;6.83;3.00;;;16.80;60.40;;;;;;5053223;28;20209;-66
2023/05/06 00:05:19;;;;;;;14.57;3.13;;;16.80;59.00;;;;;;5051500;28;20178;-65
2023/05/06 00:07:47;;;;;;;8.90;2.80;;;16.90;59.40;;;;;;5046230;28;20190;-64
2023/05/06 00:10:14;;;;;;;8.37;3.17;;;17.00;59.60;;;;;;5050451;28;20218;-64
2023/05/06 00:12:42;;;;;;;4.47;2.80;;;17.20;60.00;;;;;;5047398;28;20274;-64
2023/05/06 00:15:10;;;;;;;6.70;2.80;;;17.30;58.10;;;;;;5053418;28;20191;-66
2023/05/06 00:17:37;;;;;;;9.33;3.03;;;17.30;57.50;;;;;;5048803;28;20725;-66
2023/05/06 00:20:05;;;;;;;9.57;3.43;;;17.50;57.20;;;;;;5052572;28;20198;-65
2023/05/06 00:22:33;;;;;;;9.70;2.70;;;17.60;56.60;;;;;;5047795;28;20580;-66
2023/05/06 00:25:00;;;;;;;7.10;2.83;;;17.70;57.20;;;;;;5049574;28;20184;-63
2023/05/06 00:27:27;;;;;;;10.97;2.60;;;17.70;55.30;;;;;;5049980;28;20188;-65
2023/05/06 00:29:54;;;;;;;15.87;3.30;;;17.80;55.10;;;;;;5047439;28;20189;-66
2023/05/06 00:32:22;;;;;;;5.37;2.53;;;17.80;56.50;;;;;;5049998;28;20194;-64
2023/05/06 00:34:49;;;;;;;7.17;2.83;;;17.80;56.50;;;;;;5049867;28;20191;-67
2023/05/06 00:37:17;;;;;;;4.53;2.37;;;17.90;56.00;;;;;;5052101;28;21443;-64
2023/05/06 00:39:44;;;;;;;4.67;2.50;;;18.00;53.80;;;;;;5060005;28;20600;-64
2023/05/06 00:42:11;;;;;;;10.03;2.30;;;18.10;53.50;;;;;;5045427;28;20807;-66
2023/05/06 00:44:39;;;;;;;7.33;2.30;;;18.20;52.30;;;;;;5050324;28;20245;-63
2023/05/06 00:47:07;;;;;;;5.10;1.80;;;18.30;50.30;;;;;;5051478;28;20192;-65
2023/05/06 00:49:34;;;;;;;5.30;1.70;;;18.30;49.60;;;;;;5049145;28;20202;-65
2023/05/06 00:52:02;;;;;;;3.43;1.70;;;18.40;48.30;;;;;;5047939;28;20180;-64
2023/05/06 00:54:30;;;;;;;3.87;1.40;;;18.40;48.50;;;;;;5050288;28;20518;-65
2023/05/06 00:56:57;;;;;;;8.07;2.20;;;18.40;48.10;;;;;;5050828;28;20234;-67
2023/05/06 00:59:25;;;;;;;6.13;1.60;;;18.60;47.70;;;;;;5050245;28;20214;-66
2023/05/06 01:01:52;;;;;;;4.07;1.80;;;18.70;46.70;;;;;;5049052;28;20222;-65
2023/05/06 01:08:16;;;;;;;7.13;1.80;;;18.80;45.90;;;;;;5047607;28;20250;-66
2023/05/06 01:10:59;;;;;;;3.20;1.33;;;19.00;46.10;;;;;;5049434;28;20231;-68
2023/05/06 01:13:41;;;;;;;6.40;1.60;;;19.00;45.70;;;;;;5051444;28;20210;-66
2023/05/06 01:16:09;;;;;;;2.30;1.37;;;18.90;46.10;;;;;;5046673;28;20309;-68
2023/05/06 01:18:39;;;;;;;6.73;1.90;;;19.10;46.40;;;;;;5051558;28;20567;-68
2023/05/06 01:21:08;;;;;;;8.00;1.80;;;19.30;45.50;;;;;;5052170;28;20290;-66
2023/05/06 01:23:57;;;;;;;6.10;1.70;;;19.30;45.30;;;;;;5047369;28;20270;-66
2023/05/06 01:26:25;;;;;;;5.60;1.53;;;19.30;45.70;;;;;;5050549;28;20526;-67
2023/05/06 01:28:53;;;;;;;4.57;1.90;;;19.20;45.70;;;;;;5046015;28;20318;-68
2023/05/06 01:31:34;;;;;;;5.60;2.00;;;19.20;45.70;;;;;;5037471;28;20519;-67
2023/05/06 01:34:19;;;;;;;6.70;2.00;;;19.50;45.60;;;;;;5044841;28;20560;-65
2023/05/06 01:37:08;;;;;;;3.53;1.47;;;19.60;44.90;;;;;;5045926;28;20176;-67
2023/05/06 01:39:36;;;;;;;3.63;1.77;;;19.70;44.50;;;;;;5047877;28;20559;-65
2023/05/06 01:42:04;;;;;;;6.67;1.53;;;19.90;44.10;;;;;;5050754;28;20219;-66
2023/05/06 01:44:34;;;;;;;4.40;1.60;;;19.90;44.50;;;;;;5048028;28;20184;-67
2023/05/06 01:47:02;;;;;;;3.57;1.50;;;20.00;44.30;;;;;;5049283;28;20219;-66
2023/05/06 01:49:30;;;;;;;3.20;1.60;;;20.20;43.80;;;;;;5047618;28;20659;-66
2023/05/06 01:51:57;;;;;;;6.07;1.83;;;20.30;43.00;;;;;;5050658;28;20237;-67
2023/05/06 01:54:25;;;;;;;4.37;1.90;;;20.30;42.90;;;;;;5050131;28;20176;-64
2023/05/06 01:56:53;;;;;;;5.47;1.63;;;20.30;43.40;;;;;;5051165;28;20293;-67
2023/05/06 01:59:20;;;;;;;4.63;1.97;;;20.50;43.50;;;;;;5044394;28;20282;-68
2023/05/06 02:01:47;;;;;;;5.17;1.87;;;20.50;42.60;;;;;;5049236;28;20232;-67
2023/05/06 02:04:15;;;;;;;3.63;1.60;;;20.80;42.60;;;;;;5048669;28;20635;-71
2023/05/06 02:06:42;;;;;;;3.87;1.63;;;20.80;42.30;;;;;;5049343;28;20187;-70
2023/05/06 02:09:09;;;;;;;4.77;1.97;;;20.90;41.90;;;;;;5045586;28;20263;-68
2023/05/06 02:11:36;;;;;;;7.43;1.90;;;20.80;41.30;;;;;;5048868;28;20249;-68
2023/05/06 02:14:04;;;;;;;6.07;1.30;;;20.80;41.70;;;;;;5045350;28;20172;-69
2023/05/06 02:16:31;;;;;;;2.90;1.67;;;21.00;41.30;;;;;;5049823;28;20187;-68
2023/05/06 02:18:58;;;;;;;2.50;1.47;;;21.10;41.10;;;;;;5046217;28;20212;-68
2023/05/06 02:21:27;;;;;;;3.93;1.43;;;21.30;40.00;;;;;;5042868;28;20265;-65
2023/05/06 02:23:54;;;;;;;5.10;1.40;;;21.50;40.60;;;;;;5051209;28;20226;-68
2023/05/06 02:26:22;;;;;;;4.57;1.40;;;21.60;39.60;;;;;;5051034;28;20642;-67
2023/05/06 02:28:49;;;;;;;4.80;1.70;;;21.40;39.50;;;;;;5049894;28;20184;-66
2023/05/06 02:31:17;;;;;;;5.87;1.83;;;21.50;40.50;;;;;;5051498;28;20176;-67
2023/05/06 02:33:45;;;;;;;3.30;1.40;;;21.80;39.70;;;;;;5048274;28;20200;-66
2023/05/06 02:36:12;;;;;;;3.67;1.40;;;22.00;38.60;;;;;;5051334;28;20192;-64
2023/05/06 02:38:40;;;;;;;3.43;1.40;;;21.90;38.70;;;;;;5050387;28;20183;-65
2023/05/06 02:41:07;;;;;;;5.43;2.10;;;21.90;38.50;;;;;;5047339;28;20306;-67
2023/05/06 02:43:34;;;;;;;3.83;1.73;;;21.90;38.90;;;;;;5054581;28;20192;-67
2023/05/06 02:46:02;;;;;;;3.53;1.50;;;22.10;39.50;;;;;;5054904;28;20187;-66
2023/05/06 02:48:29;;;;;;;4.00;1.60;;;22.30;38.90;;;;;;5052577;28;20184;-64
2023/05/06 02:50:57;;;;;;;2.40;1.37;;;22.30;37.60;;;;;;5054971;28;20230;-65
2023/05/06 02:53:24;;;;;;;2.83;1.40;;;22.30;37.60;;;;;;5054541;28;20218;-67
2023/05/06 02:55:51;;;;;;;4.43;1.30;;;22.30;37.40;;;;;;5052596;28;20187;-66
2023/05/06 02:58:19;;;;;;;5.73;1.37;;;22.50;36.90;;;;;;5054309;28;20188;-66
2023/05/06 03:00:46;;;;;;;1.73;1.10;;;22.70;35.90;;;;;;5054402;28;20203;-66
2023/05/06 03:03:13;;;;;;;2.87;1.40;;;22.70;34.00;;;;;;5055208;28;20265;-67
2023/05/06 03:05:41;;;;;;;3.20;1.50;;;22.40;34.90;;;;;;5054273;28;20243;-66
2023/05/06 03:08:08;;;;;;;2.97;1.67;;;22.50;35.40;;;;;;5054718;28;20223;-65
2023/05/06 03:10:35;;;;;;;2.23;1.53;;;22.30;37.20;;;;;;5054241;28;20230;-65
2023/05/06 03:13:03;;;;;;;3.43;1.63;;;22.70;36.80;;;;;;5051134;28;20543;-66
2023/05/06 03:15:31;;;;;;;4.27;1.27;;;22.80;36.50;;;;;;5053944;28;20588;-65
2023/05/06 03:17:58;;;;;;;3.17;1.60;;;22.80;35.40;;;;;;5054641;28;20528;-65
2023/05/06 03:20:27;;;;;;;3.50;1.23;;;22.90;36.10;;;;;;5053158;28;20184;-68
2023/05/06 03:22:55;;;;;;;7.87;1.60;;;23.30;36.10;;;;;;5052774;28;20195;-69
2023/05/06 03:25:24;;;;;;;4.20;1.93;;;23.30;36.40;;;;;;5054453;28;20627;-66
2023/05/06 03:27:51;;;;;;;3.67;1.57;;;23.20;35.90;;;;;;5052477;28;20183;-68
2023/05/06 03:30:18;;;;;;;6.20;1.70;;;23.40;35.70;;;;;;5054013;28;20168;-67
2023/05/06 03:32:47;;;;;;;3.37;1.77;;;23.70;35.40;;;;;;5049441;28;20337;-67
2023/05/06 03:35:15;;;;;;;6.57;1.83;;;23.30;35.20;;;;;;5054349;28;20649;-66
2023/05/06 03:37:42;;;;;;;3.60;1.77;;;23.40;35.10;;;;;;5052934;28;20196;-69
2023/05/06 03:40:10;;;;;;;5.60;1.87;;;23.40;34.90;;;;;;5053713;28;20287;-68
2023/05/06 03:42:37;;;;;;;2.57;1.10;;;23.90;35.00;;;;;;5053828;28;20241;-67
2023/05/06 03:45:06;;;;;;;2.77;1.30;;;23.40;35.00;;;;;;5052977;28;20599;-67
2023/05/06 03:47:33;;;;;;;2.83;1.30;;;23.60;34.80;;;;;;5053471;28;20305;-66
2023/05/06 03:50:00;;;;;;;3.73;1.37;;;23.60;34.50;;;;;;5050316;28;20654;-67
2023/05/06 03:52:28;;;;;;;2.47;1.33;;;23.90;34.90;;;;;;5049060;28;20183;-66
2023/05/06 03:54:55;;;;;;;3.87;1.20;;;24.30;33.90;;;;;;5053508;28;20843;-65
2023/05/06 03:57:22;;;;;;;4.37;1.47;;;24.30;34.20;;;;;;5053538;28;20183;-68
2023/05/06 03:59:50;;;;;;;4.53;1.47;;;24.60;33.60;;;;;;5053535;28;20186;-67
2023/05/06 04:02:17;;;;;;;3.93;1.20;;;24.60;33.90;;;;;;5052076;28;20237;-66
2023/05/06 04:04:44;;;;;;;4.03;1.47;;;24.70;33.40;;;;;;5050083;28;20184;-67
2023/05/06 04:07:11;;;;;;;6.27;1.40;;;24.90;32.90;;;;;;5052991;28;20287;-65
2023/05/06 04:09:40;;;;;;;4.70;1.40;;;24.90;33.10;;;;;;5046786;28;20606;-64
2023/05/06 04:12:07;;;;;;;4.03;1.53;;;24.80;32.50;;;;;;5053058;28;20215;-64
2023/05/06 04:14:35;;;;;;;3.93;1.40;;;24.80;32.90;;;;;;5050811;28;20282;-65
2023/05/06 04:17:02;;;;;;;4.93;1.50;;;24.60;33.10;;;;;;5049515;28;20211;-64
2023/05/06 04:19:31;;;;;;;2.70;1.40;;;24.50;33.10;;;;;;5047137;28;20271;-65
2023/05/06 04:21:58;;;;;;;4.70;1.70;;;24.80;33.10;;;;;;5046945;28;20207;-65
2023/05/06 04:24:27;;;;;;;3.23;1.60;;;25.20;33.00;;;;;;5049930;28;20183;-67
2023/05/06 04:26:55;;;;;;;3.20;1.70;;;25.10;32.50;;;;;;5051347;28;20250;-67
2023/05/06 04:29:22;;;;;;;5.87;1.40;;;25.20;33.00;;;;;;5053326;28;20522;-66
2023/05/06 04:31:50;;;;;;;4.63;1.40;;;25.30;32.40;;;;;;5052751;28;20180;-65
2023/05/06 04:34:17;;;;;;;2.73;1.03;;;25.40;31.90;;;;;;5053029;28;20177;-67
2023/05/06 04:36:46;;;;;;;2.90;1.30;;;25.80;31.60;;;;;;5051153;28;20180;-66
2023/05/06 04:39:15;;;;;;;4.30;1.50;;;26.00;31.20;;;;;;5052144;28;20195;-69
2023/05/06 04:41:43;;;;;;;5.33;1.50;;;26.20;30.50;;;;;;5052462;28;20228;-67
2023/05/06 04:44:10;;;;;;;5.17;1.60;;;26.30;30.70;;;;;;5049014;28;20188;-67
2023/05/06 04:46:38;;;;;;;3.43;1.57;;;26.60;30.80;;;;;;5052703;28;20299;-67
2023/05/06 04:49:05;;;;;;;3.83;1.57;;;26.80;30.40;;;;;;5050751;28;20195;-67
2023/05/06 04:51:32;;;;;;;3.83;1.47;;;27.00;29.50;;;;;;5044930;28;20180;-66
2023/05/06 04:54:00;;;;;;;4.20;1.37;;;27.30;29.50;;;;;;5050145;28;20237;-68
2023/05/06 04:56:27;;;;;;;3.90;1.40;;;27.90;29.20;;;;;;5048923;28;20184;-67
2023/05/06 04:58:54;;;;;;;5.50;1.33;;;27.30;29.20;;;;;;5051890;28;20252;-68
2023/05/06 05:01:21;;;;;;;2.57;1.37;;;27.50;29.80;;;;;;5047657;28;20208;-68
2023/05/06 05:03:49;;;;;;;5.10;1.27;;;28.10;29.10;;;;;;5050572;28;20187;-71
2023/05/06 05:06:16;;;;;;;2.60;1.20;;;27.50;28.80;;;;;;5050991;28;20187;-67
2023/05/06 05:08:43;;;;;;;4.10;1.40;;;27.60;29.20;;;;;;5049310;28;20241;-67
2023/05/06 05:11:11;;;;;;;4.40;1.47;;;27.00;29.40;;;;;;5052257;28;20230;-65
2023/05/06 05:13:38;;;;;;;2.43;1.27;;;27.40;29.10;;;;;;5049851;28;20195;-68
2023/05/06 05:16:06;;;;;;;4.57;1.43;;;27.20;29.50;;;;;;5048091;28;20191;-65
2023/05/06 05:18:33;;;;;;;6.93;1.70;;;27.70;28.80;;;;;;5051598;28;20373;-66
2023/05/06 05:21:00;;;;;;;3.50;1.40;;;27.30;29.10;;;;;;5049066;28;20204;-67
2023/05/06 05:23:27;;;;;;;5.50;1.30;;;26.30;30.20;;;;;;5050773;28;20654;-66
2023/05/06 05:25:55;;;;;;;1.90;1.10;;;26.80;30.70;;;;;;5049213;28;20245;-66
2023/05/06 05:28:22;;;;;;;3.57;1.40;;;27.10;29.10;;;;;;5046651;28;20183;-64
2023/05/06 05:30:49;;;;;;;2.83;1.33;;;26.90;29.20;;;;;;5048664;28;20706;-69
2023/05/06 05:33:17;;;;;;;3.03;1.10;;;27.30;28.80;;;;;;5046562;28;20172;-66
2023/05/06 05:35:44;;;;;;;5.00;1.60;;;27.40;29.60;;;;;;5051582;28;20187;-66
2023/05/06 05:38:13;;;;;;;6.53;1.80;;;28.00;28.20;;;;;;5051743;28;20631;-66
2023/05/06 05:40:40;;;;;;;3.47;1.60;;;27.50;28.80;;;;;;5050567;28;20179;-66
2023/05/06 05:43:08;;;;;;;2.83;1.60;;;27.90;30.10;;;;;;5049913;28;20604;-67
2023/05/06 05:45:35;;;;;;;5.27;1.80;;;27.60;31.70;;;;;;5049576;28;20186;-69
2023/05/06 05:48:03;;;;;;;5.07;1.60;;;27.30;33.10;;;;;;5050414;28;20639;-66
2023/05/06 05:50:30;;;;;;;5.93;1.70;;;27.40;33.30;;;;;;5051444;28;20199;-67
2023/05/06 05:52:57;;;;;;;4.70;1.70;;;27.40;33.00;;;;;;5050933;28;20600;-65
2023/05/06 05:55:25;;;;;;;2.70;1.40;;;27.30;32.90;;;;;;5045804;28;20191;-66
2023/05/06 05:57:52;;;;;;;5.37;1.70;;;27.00;34.00;;;;;;5049896;28;20183;-65
2023/05/06 06:00:20;;;;;;;3.97;1.77;;;27.10;34.10;;;;;;5047691;28;20275;-67
2023/05/06 06:02:47;;;;;;;4.43;2.13;;;26.70;34.50;;;;;;5048304;28;20218;-67
2023/05/06 06:05:15;;;;;;;4.60;2.10;;;26.10;35.20;;;;;;5050543;28;20271;-67
2023/05/06 06:07:43;;;;;;;4.13;1.50;;;25.00;37.20;;;;;;5043525;28;20525;-67
2023/05/06 06:10:12;;;;;;;6.23;1.90;;;24.20;38.60;;;;;;5047154;28;20223;-69
2023/05/06 06:12:40;;;;;;;3.43;1.80;;;23.60;40.60;;;;;;5044221;28;20245;-68
2023/05/06 06:15:08;;;;;;;4.90;1.50;;;22.90;42.40;;;;;;5048324;28;20587;-69
2023/05/06 06:17:35;;;;;;;4.27;1.97;;;22.80;42.90;;;;;;5044936;28;20184;-69
2023/05/06 06:20:03;;;;;;;4.07;1.50;;;22.40;44.20;;;;;;5048960;28;20187;-68
2023/05/06 06:22:31;;;;;;;4.87;2.07;;;21.90;45.50;;;;;;5048797;28;20242;-69
2023/05/06 06:24:58;;;;;;;3.70;1.50;;;21.60;46.40;;;;;;5050588;28;20183;-68
2023/05/06 06:27:25;;;;;;;3.70;1.80;;;21.40;46.50;;;;;;5047471;28;20201;-65
2023/05/06 06:29:53;;;;;;;7.60;1.80;;;21.20;47.00;;;;;;5044501;28;20215;-66
2023/05/06 06:32:20;;;;;;;3.70;1.73;;;20.80;47.80;;;;;;5046281;28;20194;-67
2023/05/06 06:34:47;;;;;;;6.60;1.77;;;20.80;47.80;;;;;;5043888;28;20236;-67
2023/05/06 06:37:15;;;;;;;3.17;1.87;;;20.80;48.00;;;;;;5050564;28;20210;-67
2023/05/06 06:39:42;;;;;;;4.93;2.10;;;20.60;48.60;;;;;;5050129;28;20203;-66
2023/05/06 06:42:09;;;;;;;3.30;1.80;;;20.50;49.30;;;;;;5050468;28;20224;-68
2023/05/06 06:44:37;;;;;;;4.40;1.83;;;20.40;49.60;;;;;;5049706;28;20267;-69
2023/05/06 06:47:04;;;;;;;3.73;2.00;;;20.30;50.10;;;;;;5045848;28;20195;-67
2023/05/06 06:49:32;;;;;;;8.67;2.27;;;20.20;50.50;;;;;;5048496;28;20189;-68
2023/05/06 06:51:59;;;;;;;4.27;2.20;;;20.10;50.10;;;;;;5071132;28;20211;-68
2023/05/06 06:54:26;;;;;;;6.67;2.43;;;19.90;50.50;;;;;;5050087;28;20191;-66
2023/05/06 06:56:57;;;;;;;4.77;1.93;;;19.80;51.20;;;;;;5047637;28;20192;-69
2023/05/06 06:59:24;;;;;;;2.83;1.90;;;19.60;52.00;;;;;;5046092;28;20607;-65
2023/05/06 07:01:51;;;;;;;5.23;2.07;;;19.40;52.00;;;;;;5048773;28;20582;-67
2023/05/06 07:04:19;;;;;;;4.80;2.20;;;19.40;52.30;;;;;;5041864;28;20192;-66
2023/05/06 07:06:46;;;;;;;4.47;1.80;;;19.30;53.20;;;;;;5042799;28;20287;-67
2023/05/06 07:09:13;;;;;;;6.93;2.10;;;19.20;53.60;;;;;;5047218;28;20271;-67
2023/05/06 07:11:41;;;;;;;7.90;2.07;;;19.10;53.40;;;;;;5046182;28;20227;-67
2023/05/06 07:14:08;;;;;;;3.47;1.80;;;19.00;54.10;;;;;;5048875;28;20181;-68
2023/05/06 07:16:36;;;;;;;3.97;2.00;;;19.00;54.40;;;;;;5044540;28;20184;-68
2023/05/06 07:19:03;;;;;;;5.23;2.47;;;18.90;54.80;;;;;;5047712;28;20198;-67
2023/05/06 07:21:33;;;;;;;4.27;2.00;;;18.80;55.10;;;;;;5048192;28;20215;-66
2023/05/06 07:24:00;;;;;;;6.23;2.20;;;18.80;55.80;;;;;;5049682;28;20603;-68
2023/05/06 07:26:28;;;;;;;5.87;2.07;;;18.70;55.90;;;;;;5046767;28;20176;-68
2023/05/06 07:28:55;;;;;;;10.13;2.07;;;18.50;56.40;;;;;;5053464;28;20196;-68
2023/05/06 07:31:22;;;;;;;3.53;2.07;;;18.40;57.30;;;;;;5054071;28;20658;-67
2023/05/06 07:33:50;;;;;;;5.63;2.53;;;18.30;57.80;;;;;;5050214;28;20622;-67
2023/05/06 07:36:17;;;;;;;3.70;1.90;;;18.30;58.40;;;;;;5048405;28;20193;-66
2023/05/06 07:38:44;;;;;;;8.17;2.30;;;18.20;58.70;;;;;;5053510;28;20190;-64
2023/05/06 07:41:12;;;;;;;5.73;2.30;;;18.20;59.20;;;;;;5049924;28;20211;-67
2023/05/06 07:43:39;;;;;;;4.03;2.23;;;18.20;59.50;;;;;;5052825;28;20617;-67
2023/05/06 07:46:06;;;;;;;6.80;2.33;;;18.10;59.80;;;;;;5052920;28;20275;-68
2023/05/06 07:48:34;;;;;;;4.67;2.50;;;18.10;59.90;;;;;;5051230;28;20233;-66
2023/05/06 07:51:03;;;;;;;4.97;2.33;;;18.00;60.30;;;;;;5052434;28;20211;-66
2023/05/06 07:53:30;;;;;;;7.67;2.60;;;18.00;60.50;;;;;;5053254;28;20207;-66
2023/05/06 07:56:00;;;;;;;5.47;2.47;;;17.90;60.50;;;;;;5053730;28;20193;-66
2023/05/06 07:58:32;;;;;;;7.63;2.40;;;17.90;60.80;;;;;;5052682;28;20258;-67
2023/05/06 08:00:59;;;;;;;4.90;2.67;;;17.80;61.10;;;;;;5053189;28;20199;-65
2023/05/06 08:03:26;;;;;;;3.97;2.20;;;17.80;61.30;;;;;;5046926;28;20192;-66
2023/05/06 08:05:54;;;;;;;4.33;2.03;;;17.70;61.20;;;;;;5050542;28;20191;-65
2023/05/06 08:08:26;;;;;;;4.90;2.67;;;17.60;61.40;;;;;;5050176;28;20697;-68
2023/05/06 08:10:58;;;;;;;8.50;2.40;;;17.60;61.70;;;;;;5052759;28;20271;-65
2023/05/06 08:13:26;;;;;;;6.50;3.87;;;17.50;61.90;;;;;;5050865;28;20175;-65
2023/05/06 08:15:54;;;;;;;9.37;6.07;;;17.50;62.10;;;;;;5046356;28;20224;-65
2023/05/06 08:18:22;;;;;;;14.00;7.17;;;17.40;62.60;;;;;;5051395;28;20187;-67
2023/05/06 08:20:50;;;;;;;9.47;6.63;;;17.40;62.90;;;;;;5047694;28;20176;-65
2023/05/06 08:23:17;;;;;;;12.70;6.63;;;17.30;63.20;;;;;;5052424;28;20203;-65
2023/05/06 08:25:45;;;;;;;12.00;6.00;;;17.30;63.10;;;;;;5052538;28;20192;-66
2023/05/06 08:28:12;;;;;;;10.43;5.97;;;17.30;63.50;;;;;;5052237;28;20650;-65
2023/05/06 08:30:40;;;;;;;7.80;4.97;;;17.20;63.80;;;;;;5049350;28;20196;-66
2023/05/06 08:33:07;;;;;;;9.67;6.00;;;17.20;63.80;;;;;;5053143;28;20192;-67
2023/05/06 08:35:34;;;;;;;13.07;5.80;;;17.20;64.20;;;;;;5050203;28;20192;-65
2023/05/06 08:38:02;;;;;;;8.47;4.80;;;17.20;64.40;;;;;;5052970;28;20322;-67
2023/05/06 08:40:32;;;;;;;9.90;5.27;;;17.10;64.00;;;;;;5050235;28;20261;-66
2023/05/06 08:43:02;;;;;;;10.23;4.97;;;17.10;64.40;;;;;;5050035;28;20223;-69
2023/05/06 08:45:31;;;;;;;13.73;4.87;;;17.00;64.60;;;;;;5050660;28;20640;-69
2023/05/06 08:47:59;;;;;;;7.73;4.43;;;17.00;64.70;;;;;;5048321;28;20257;-65
2023/05/06 08:50:26;;;;;;;9.13;3.80;;;17.00;65.10;;;;;;5050595;28;20190;-64
2023/05/06 08:52:53;;;;;;;9.13;4.67;;;17.00;64.60;;;;;;5049019;28;20199;-66
2023/05/06 08:55:23;;;;;;;7.13;3.57;;;16.90;65.10;;;;;;5051612;28;20715;-63
2023/05/06 08:57:54;;;;;;;6.70;3.97;;;16.90;65.30;;;;;;5047560;28;20191;-65
2023/05/06 09:00:21;;;;;;;9.13;4.33;;;16.90;65.40;;;;;;5051786;28;20286;-65
2023/05/06 09:02:48;;;;;;;11.10;4.23;;;16.90;65.40;;;;;;5047789;28;20250;-65
2023/05/06 09:05:16;;;;;;;11.10;3.97;;;16.80;65.60;;;;;;5048832;28;20184;-65
2023/05/06 09:07:43;;;;;;;7.07;4.27;;;16.80;65.90;;;;;;5047600;28;20661;-66
2023/05/06 09:10:16;;;;;;;9.60;4.00;;;16.80;65.70;;;;;;5051230;28;20572;-64
2023/05/06 09:12:44;;;;;;;8.00;4.37;;;16.80;66.10;;;;;;5051226;28;20189;-64
2023/05/06 09:15:12;;;;;;;9.53;4.33;;;16.80;66.30;;;;;;5047160;28;20180;-65
2023/05/06 09:17:40;;;;;;;7.87;4.70;;;16.80;66.00;;;;;;5048850;28;20814;-65
2023/05/06 09:20:12;;;;;;;9.33;3.97;;;16.80;66.20;;;;;;5047854;28;20581;-66
2023/05/06 09:22:39;;;;;;;6.80;3.70;;;16.80;66.50;;;;;;5049256;28;20307;-69
2023/05/06 09:25:08;;;;;;;13.57;5.07;;;16.80;66.70;;;;;;5052254;28;20183;-68
2023/05/06 09:27:36;;;;;;;12.23;4.93;;;16.70;66.80;;;;;;5048176;28;20187;-67
2023/05/06 09:30:04;;;;;;;11.70;5.67;;;16.70;67.10;;;;;;5049537;28;20215;-67
2023/05/06 09:32:33;;;;;;;12.47;5.80;;;16.60;67.50;;;;;;5050138;28;20187;-69
2023/05/06 09:35:01;;;;;;;10.53;5.43;;;16.60;67.60;;;;;;5046273;28;20225;-68
2023/05/06 09:37:28;;;;;;;12.57;6.10;;;16.50;67.90;;;;;;5038237;28;20205;-67
2023/05/06 09:39:58;;;;;;;17.17;6.80;;;16.50;67.80;;;;;;5050085;28;20190;-64
2023/05/06 09:42:27;;;;;;;8.87;5.43;;;16.40;68.10;;;;;;5047753;28;20323;-66
2023/05/06 09:44:57;;;;;;;15.03;7.30;;;16.40;68.40;;;;;;5049595;28;20700;-66
2023/05/06 09:47:26;;;;;;;14.27;6.40;;;16.30;68.50;;;;;;5050105;28;20203;-67
2023/05/06 09:50:00;;;;;;;13.63;6.37;;;16.30;68.60;;;;;;5046942;28;20175;-65
2023/05/06 09:52:28;;;;;;;12.80;6.07;;;16.30;69.00;;;;;;5049484;28;20187;-64
2023/05/06 09:54:56;;;;;;;15.43;6.57;;;16.30;69.40;;;;;;5048733;28;20642;-65
2023/05/06 09:57:24;;;;;;;17.63;6.47;;;16.20;69.40;;;;;;5046389;28;20209;-65
2023/05/06 09:59:53;;;;;;;15.10;7.67;;;16.30;69.70;;;;;;5045554;28;20187;-64
2023/05/06 10:02:22;;;;;;;9.80;5.90;;;16.20;69.90;;;;;;5051137;28;20233;-64
2023/05/06 10:04:52;;;;;;;15.93;6.07;;;16.20;69.90;;;;;;5045971;28;20177;-67
2023/05/06 10:07:27;;;;;;;10.37;6.37;;;16.10;70.40;;;;;;5049948;28;20187;-68
2023/05/06 10:09:56;;;;;;;12.80;6.43;;;16.10;71.00;;;;;;5047138;28;20575;-67
2023/05/06 10:12:25;;;;;;;16.03;7.07;;;16.00;71.10;;;;;;5049504;28;20696;-65
2023/05/06 10:14:52;;;;;;;12.70;6.73;;;16.00;71.10;;;;;;5046312;28;20226;-67
2023/05/06 10:17:21;;;;;;;12.00;6.93;;;15.90;70.90;;;;;;5047855;28;20183;-66
2023/05/06 10:19:54;;;;;;;12.90;6.57;;;15.90;70.70;;;;;;5045747;28;20186;-65
2023/05/06 10:22:30;;;;;;;11.73;6.80;;;15.80;70.80;;;;;;5049335;28;20693;-66
2023/05/06 10:25:16;;;;;;;13.90;7.43;;;15.80;71.10;;;;;;5049223;28;20271;-66
2023/05/06 10:27:48;;;;;;;15.83;8.17;;;15.80;71.20;;;;;;5046785;28;20557;-64
2023/05/06 10:30:16;;;;;;;19.40;9.43;;;15.70;71.30;;;;;;5046730;28;20220;-68
2023/05/06 10:32:45;;;;;;;15.00;8.70;;;15.70;71.70;;;;;;5047832;28;20194;-69
2023/05/06 10:35:42;;;;;;;18.53;10.40;;;15.70;72.30;;;;;;5048595;28;20184;-64
2023/05/06 10:38:20;;;;;;;16.37;10.17;;;15.60;72.20;;;;;;5046382;28;20185;-67
2023/05/06 10:40:49;;;;;;;15.30;8.87;;;15.60;72.40;;;;;;5049680;28;20172;-66
2023/05/06 10:43:30;;;;;;;15.10;8.33;;;15.50;72.40;;;;;;5048966;28;20186;-65
2023/05/06 10:46:16;;;;;;;13.77;8.70;;;15.50;72.60;;;;;;5050176;28;20182;-67
2023/05/06 10:49:12;;;;;;;13.37;9.80;;;15.50;72.80;;;;;;5050512;28;20528;-68
2023/05/06 10:51:43;;;;;;;16.97;10.03;;;15.50;72.60;;;;;;5046963;28;20187;-65
2023/05/06 10:54:31;;;;;;;18.00;9.57;;;15.50;72.70;;;;;;5047168;28;20261;-65
2023/05/06 10:56:58;;;;;;;14.53;9.70;;;15.40;72.70;;;;;;5047637;28;20195;-66
2023/05/06 10:59:28;;;;;;;18.20;10.40;;;15.40;73.00;;;;;;5044698;28;20185;-64
2023/05/06 11:02:05;;;;;;;15.73;10.60;;;15.30;73.50;;;;;;5047735;28;20247;-67
2023/05/06 11:04:33;;;;;;;15.90;10.53;;;15.30;73.50;;;;;;5051244;28;20628;-65
2023/05/06 11:07:27;;;;;;;18.77;10.73;;;15.30;73.70;;;;;;5047836;28;20285;-69
2023/05/06 11:09:58;;;;;;;14.27;9.27;;;15.20;74.00;;;;;;5053721;28;20566;-67
2023/05/06 11:12:44;;;;;;;11.90;7.63;;;15.20;74.30;;;;;;5053303;28;20673;-66
2023/05/06 11:15:38;;;;;;;16.03;8.90;;;15.20;73.90;;;;;;5053647;28;20188;-67
2023/05/06 11:18:35;;;;;;;15.17;9.40;;;15.20;73.80;;;;;;5054573;28;20187;-64
2023/05/06 11:21:13;;;;;;;25.27;13.73;;;15.10;73.90;;;;;;5052910;28;20786;-65
2023/05/06 11:23:49;;;;;;;23.53;14.20;;;15.10;73.90;;;;;;5052703;28;20231;-68
2023/05/06 11:26:17;;;;;;;23.40;12.93;;;15.00;74.00;;;;;;5054287;28;20181;-67
2023/05/06 11:28:47;;;;;;;22.20;12.23;;;15.00;74.10;;;;;;5053234;28;20188;-65
2023/05/06 11:31:14;;;;;;;17.60;10.97;;;15.00;74.60;;;;;;5052786;28;20191;-68
2023/05/06 11:33:51;;;;;;;17.73;9.37;;;15.00;74.60;;;;;;5054408;28;20273;-68
2023/05/06 11:36:20;;;;;;;18.23;10.10;;;14.90;74.40;;;;;;5046194;28;20670;-69
2023/05/06 11:38:51;;;;;;;15.50;9.73;;;14.90;74.70;;;;;;5044652;28;20180;-69
2023/05/06 11:41:21;;;;;;;20.43;10.60;;;14.90;74.60;;;;;;5053370;28;20215;-67
2023/05/06 11:43:52;;;;;;;18.90;11.67;;;14.90;75.00;;;;;;5051101;28;20259;-66
2023/05/06 11:46:22;;;;;;;18.73;11.40;;;14.90;75.10;;;;;;5051650;28;20639;-64
2023/05/06 11:48:50;;;;;;;19.63;11.60;;;14.90;75.20;;;;;;5050544;28;20191;-66
2023/05/06 11:51:25;;;;;;;21.70;12.10;;;14.80;75.40;;;;;;5049596;28;20190;-67
2023/05/06 11:54:15;;;;;;;19.33;12.17;;;14.80;75.70;;;;;;5046399;28;20196;-68
2023/05/06 11:56:51;;;;;;;17.43;10.97;;;14.80;75.80;;;;;;5049806;28;20673;-67
2023/05/06 11:59:27;;;;;;;19.93;9.70;;;14.80;76.00;;;;;;5047857;28;20204;-68
2023/05/06 12:01:56;;;;;;;17.77;9.33;;;14.80;76.20;;;;;;5049771;28;20565;-68
2023/05/06 12:04:23;;;;;;;17.43;9.27;;;14.80;76.10;;;;;;5047093;28;20191;-67
2023/05/06 12:06:50;;;;;;;15.37;10.03;;;14.80;76.60;;;;;;5051202;28;20196;-68
2023/05/06 12:09:20;;;;;;;17.07;10.37;;;14.70;76.20;;;;;;5053123;28;20184;-66
2023/05/06 12:11:48;;;;;;;15.37;10.03;;;14.70;76.40;;;;;;5050973;28;20311;-69
2023/05/06 12:14:16;;;;;;;18.23;10.13;;;14.70;76.50;;;;;;5051288;28;20263;-68
2023/05/06 12:16:46;;;;;;;18.93;10.07;;;14.60;76.50;;;;;;5050533;28;20204;-65
2023/05/06 12:19:17;;;;;;;18.23;9.67;;;14.50;76.60;;;;;;5052950;28;20187;-66
2023/05/06 12:21:45;;;;;;;18.90;9.13;;;14.50;77.00;;;;;;5052575;28;20216;-67
2023/05/06 12:24:12;;;;;;;20.07;10.77;;;14.50;77.00;;;;;;5052860;28;20270;-67
2023/05/06 12:26:44;;;;;;;17.67;9.43;;;14.40;77.10;;;;;;5059745;28;20184;-68
2023/05/06 12:29:15;;;;;;;18.80;9.37;;;14.40;77.40;;;;;;5049165;28;20286;-65
2023/05/06 12:31:46;;;;;;;17.77;9.47;;;14.40;78.00;;;;;;5052330;28;20196;-67
2023/05/06 12:34:17;;;;;;;18.50;10.07;;;14.40;78.20;;;;;;5052890;28;20191;-67
2023/05/06 12:36:47;;;;;;;17.93;9.97;;;14.30;79.00;;;;;;5052153;28;20225;-68
2023/05/06 12:39:16;;;;;;;13.50;9.30;;;14.30;79.40;;;;;;5053276;28;20391;-66
2023/05/06 12:41:45;;;;;;;18.83;9.30;;;14.30;79.90;;;;;;5051473;28;20208;-68
2023/05/06 12:44:35;;;;;;;15.97;9.73;;;14.20;80.20;;;;;;5051619;28;20258;-67
2023/05/06 12:47:18;;;;;;;14.17;9.27;;;14.30;81.00;;;;;;5051919;28;20704;-68
2023/05/06 12:49:51;;;;;;;18.40;9.67;;;14.20;81.70;;;;;;5052507;28;20192;-68
2023/05/06 12:52:20;;;;;;;15.43;8.90;;;14.30;81.90;;;;;;5049031;28;20187;-65
2023/05/06 12:54:48;;;;;;;17.63;9.70;;;14.30;82.00;;;;;;5050433;28;20180;-67
2023/05/06 12:57:16;;;;;;;15.87;9.70;;;14.20;82.00;;;;;;5052239;28;20195;-66